LIBP/PSR METAR and TAF weather

Enter ICAO airport designator
Station Type Date Time Source
LIBP METAR 2020/01/23 17:50 UTC NOAA

LIBP 231750Z 24002KT CAVOK 07/05 Q1030


Station Type Date Time Source
LIBP Decoded METAR 2020/01/23 17:50 UTC NOAA

Pescara, Italy (LIBP) 42-26N 014-12E 11M
Jan 23, 2020 - 12:50 PM EST / 2020.01.23 1750 UTC
Wind: from the WSW (240 degrees) at 2 MPH (2 KT):0
Visibility: greater than 7 mile(s):0
Temperature: 44 F (7 C)
Dew Point: 41 F (5 C)
Relative Humidity: 87%
Pressure (altimeter): 30.42 in. Hg (1030 hPa)
ob: LIBP 231750Z 24002KT CAVOK 07/05 Q1030
cycle: 18

Station Type Date Time Source
LIBP TAF 2020/01/23 18:21 UTC NOAA

TAF LIBP 231700Z 2318/2418 VRB05KT CAVOK

Example: see airport list